17 de agosto de 2022

Hora Código Clima Temp. Visibilidade Tecto Vento METAR/SPECI
14:20
V
25 °C 10 km+ - 280° 280° 9 kt METAR EDTY 171220Z 28009KT CAVOK 25/12 Q1014
13:50
V
26 °C 10 km+ - 270° 270° 11 kt METAR EDTY 171150Z 27011KT 9999 FEW022 26/11 Q1013
13:20
V
26 °C 10 km+ - 300° 300° 9 kt METAR EDTY 171120Z 30009KT CAVOK 26/12 Q1013
12:50
V
27 °C 10 km+ - 300° 300° 10 kt METAR EDTY 171050Z 30010KT CAVOK 27/11 Q1013
12:20
V
27 °C 10 km+ - 290° 290° 10 kt METAR EDTY 171020Z 29010KT CAVOK 27/12 Q1013
11:50
V
27 °C 10 km+ - 300° 300° 12 kt METAR EDTY 170950Z 30012KT CAVOK 27/12 Q1012
11:20
V
28 °C 10 km+ - 290° 290° 4 kt METAR EDTY 170920Z 29004KT 240V020 CAVOK 28/13 Q1012
10:50
V
26 °C 10 km+ - 340° 340° 5 kt METAR EDTY 170850Z 34005KT 300V010 CAVOK 26/13 Q1012
10:20
V
26 °C 10 km+ - 300° 300° 3 kt METAR EDTY 170820Z 30003KT 220V360 CAVOK 26/13 Q1012
09:50
V
24 °C 10 km+ - Var Var 1 kt METAR EDTY 170750Z VRB01KT CAVOK 24/12 Q1012
09:20
V
22 °C 10 km+ - 220° 220° 3 kt METAR EDTY 170720Z 22003KT 180V260 CAVOK 22/12 Q1012
08:50
V
21 °C 10 km+ - Var Var 1 kt METAR EDTY 170650Z VRB01KT CAVOK 21/12 Q1012
08:20
V
18 °C 10 km+ - Var Var 1 kt METAR EDTY 170620Z VRB01KT CAVOK 18/12 Q1012
07:50
V
15 °C 10 km+ - 240° 240° 4 kt METAR EDTY 170550Z 24004KT CAVOK 15/12 Q1012
07:20
V
14 °C 10 km+ - 080° 080° 2 kt METAR EDTY 170520Z 08002KT CAVOK 14/11 Q1011
06:50
V
13 °C 10 km+ - 070° 070° 2 kt METAR EDTY 170450Z 07002KT CAVOK 13/10 Q1011
06:20
V
13 °C 10 km+ - Var Var 1 kt METAR EDTY 170420Z AUTO VRB01KT 9999 // FEW250/// 13/10 Q1011
05:50
V
14 °C 10 km+ - Var Var 1 kt METAR EDTY 170350Z AUTO VRB01KT 9999 // NCD 14/11 Q1011
05:20
V
13 °C 10 km+ - 110° 110° 1 kt METAR EDTY 170320Z AUTO 11001KT 9999 // NCD 13/11 Q1011
04:50
V
14 °C 10 km+ - 100° 100° 4 kt METAR EDTY 170250Z AUTO 10004KT 9999 // NCD 14/11 Q1011
04:20
V
14 °C 10 km+ - 090° 090° 4 kt METAR EDTY 170220Z AUTO 09004KT 9999 // NCD 14/11 Q1011
03:50
V
14 °C 10 km+ - 090° 090° 5 kt METAR EDTY 170150Z AUTO 09005KT 9999 // NCD 14/11 Q1011
03:20
V
13 °C 10 km+ - 080° 080° 5 kt METAR EDTY 170120Z AUTO 08005KT 9999 // NCD 13/10 Q1011
02:50
V
15 °C 10 km+ - 090° 090° 3 kt METAR EDTY 170050Z AUTO 09003KT 9999 // NCD 15/11 Q1011
02:20
V
15 °C 10 km+ - Var Var 2 kt METAR EDTY 170020Z AUTO VRB02KT 9999 // NCD 15/11 Q1011
01:50
V
16 °C 10 km+ - Var Var 2 kt METAR EDTY 162350Z AUTO VRB02KT 9999 // NCD 16/12 Q1012
01:20
V
17 °C 10 km+ - 090° 090° 3 kt METAR EDTY 162320Z AUTO 09003KT 9999 // NCD 17/12 Q1012
00:50
V
17 °C 10 km+ - 100° 100° 3 kt METAR EDTY 162250Z AUTO 10003KT 9999 // NCD 17/12 Q1012
00:20
V
16 °C 10 km+ - 090° 090° 5 kt METAR EDTY 162220Z AUTO 09005KT 9999 // NCD 16/11 Q1012

16 de agosto de 2022

Hora Código Clima Temp. Visibilidade Tecto Vento METAR/SPECI
23:50
V
18 °C 10 km+ - 090° 090° 3 kt METAR EDTY 162150Z AUTO 09003KT 9999 // NCD 18/11 Q1012
23:20
V
18 °C 10 km+ - 100° 100° 5 kt METAR EDTY 162120Z AUTO 10005KT 9999 // NCD 18/12 Q1012
22:50
V
18 °C 10 km+ - 100° 100° 4 kt METAR EDTY 162050Z AUTO 10004KT 9999 // NCD 18/11 Q1012
22:20
V
20 °C 10 km+ - 100° 100° 3 kt METAR EDTY 162020Z AUTO 10003KT 9999 // NCD 20/11 Q1011
21:50
V
21 °C 10 km+ - 020° 020° 1 kt METAR EDTY 161950Z AUTO 02001KT 9999 // NCD 21/11 Q1011
21:20
V
22 °C 10 km+ - 040° 040° 2 kt METAR EDTY 161920Z AUTO 04002KT 9999 // NCD 22/11 Q1011
20:50
V
23 °C 10 km+ - Var 000° 0 kt METAR EDTY 161850Z AUTO /////KT ///V/// 9999 // NCD 23/11 Q1011
20:20
V
25 °C 10 km+ - 340° 340° 3 kt METAR EDTY 161820Z AUTO 34003KT 9999 // NCD 25/11 Q1011
19:50
V
26 °C 10 km+ - 360° 360° 3 kt METAR EDTY 161750Z 36003KT CAVOK 26/11 Q1011
19:20
V
27 °C 10 km+ - 340° 340° 4 kt METAR EDTY 161720Z 34004KT 300V020 CAVOK 27/12 Q1011
18:50
V
28 °C 10 km+ - Var Var 3 kt METAR EDTY 161650Z VRB03KT CAVOK 28/11 Q1011
18:20
V
28 °C 10 km+ - Var Var 3 kt METAR EDTY 161620Z VRB03KT CAVOK 28/11 Q1011
17:50
V
27 °C 10 km+ - 280° 280° 5 kt METAR EDTY 161550Z 28005KT 230V320 CAVOK 27/10 Q1011
17:20
V
28 °C 10 km+ - 240° 240° 4 kt METAR EDTY 161520Z 24004KT 150V300 CAVOK 28/11 Q1011
16:50
V
28 °C 10 km+ - Var Var 3 kt METAR EDTY 161450Z VRB03KT CAVOK 28/12 Q1011
16:20
V
28 °C 10 km+ - 260° 260° 8 kt METAR EDTY 161420Z 26008KT 200V310 CAVOK 28/11 Q1011
15:50
V
27 °C 10 km+ - Var Var 5 kt METAR EDTY 161350Z VRB05KT CAVOK 27/11 Q1011
15:20
V
27 °C 10 km+ - 200° 200° 5 kt METAR EDTY 161320Z 20005KT 080V250 CAVOK 27/12 Q1011
14:50
V
26 °C 10 km+ - Var Var 5 kt METAR EDTY 161250Z VRB05KT CAVOK 26/12 Q1011
14:20
V
25 °C 10 km+ - 250° 250° 5 kt METAR EDTY 161220Z 25005KT 170V300 CAVOK 25/12 Q1011
13:50
V
24 °C 10 km+ - 290° 290° 5 kt METAR EDTY 161150Z 29005KT 250V330 9999 SCT048 24/13 Q1012
13:20
V
24 °C 10 km+ - Var Var 5 kt METAR EDTY 161120Z VRB05KT 9999 FEW046 24/13 Q1012
12:50
V
26 °C 10 km+ - Var Var 3 kt METAR EDTY 161050Z VRB03KT 9999 FEW043 26/14 Q1011
12:20
V
25 °C 10 km+ - 240° 240° 5 kt METAR EDTY 161020Z 24005KT 170V300 9999 FEW040 SCT048 25/13 Q1011
11:50
V
23 °C 10 km+ - 200° 200° 6 kt METAR EDTY 160950Z 20006KT 120V250 9999 FEW042 23/13 Q1012
11:20
V
22 °C 10 km+ - 140° 140° 5 kt METAR EDTY 160920Z 14005KT 100V180 9999 FEW039 22/13 Q1012
10:50
V
22 °C 10 km+ - Var Var 3 kt METAR EDTY 160850Z VRB03KT 9999 FEW032 22/14 Q1012
10:20
V
21 °C 10 km+ - 220° 220° 3 kt METAR EDTY 160820Z 22003KT 190V270 9999 FEW030 21/14 Q1011
09:50
V
20 °C 10 km+ - 200° 200° 3 kt METAR EDTY 160750Z 20003KT 110V240 CAVOK 20/13 Q1011
09:20
V
19 °C 10 km+ - Var Var 2 kt METAR EDTY 160720Z VRB02KT CAVOK 19/14 Q1011
08:50
V
18 °C 10 km+ - Var Var 2 kt METAR EDTY 160650Z VRB02KT CAVOK 18/14 Q1011
08:20
V
17 °C 10 km+ - Var Var 1 kt METAR EDTY 160620Z VRB01KT CAVOK 17/14 Q1011
07:50
V
16 °C 10 km+ - Var Var 1 kt METAR EDTY 160550Z VRB01KT CAVOK 16/13 Q1011
07:20
V
14 °C 10 km+ - Var 000° 0 kt METAR EDTY 160520Z 00000KT CAVOK 14/12 Q1011
06:50
V
12 °C 10 km+ - 080° 080° 3 kt METAR EDTY 160450Z 08003KT CAVOK 12/11 Q1010
06:20
V
12 °C 10 km+ - Var Var 2 kt METAR EDTY 160420Z VRB02KT CAVOK 12/11 Q1010
05:50
V
13 °C 10 km+ - 100° 100° 4 kt METAR EDTY 160350Z AUTO 10004KT 9999 // FEW087/// 13/12 Q1010
05:20
V
12 °C 10 km+ - 090° 090° 5 kt METAR EDTY 160320Z AUTO 09005KT 9999 // NCD 12/11 Q1010
04:50
V
12 °C 10 km+ - Var Var 2 kt METAR EDTY 160250Z AUTO VRB02KT 9999 // NCD 12/11 Q1011
04:20
V
13 °C 10 km+ - 090° 090° 5 kt METAR EDTY 160220Z AUTO 09005KT 9999 // NCD 13/11 Q1011
03:50
V
13 °C 10 km+ - 090° 090° 4 kt METAR EDTY 160150Z AUTO 09004KT 9999 // NCD 13/12 Q1011
03:20
V
15 °C 10 km+ - 210° 210° 3 kt METAR EDTY 160120Z AUTO 21003KT 180V250 9999 // NCD 15/12 Q1011
02:50
V
13 °C 10 km+ - Var Var 2 kt METAR EDTY 160050Z AUTO VRB02KT 9999 // NCD 13/12 Q1010
02:20
V
14 °C 10 km+ - Var Var 1 kt METAR EDTY 160020Z AUTO VRB01KT 9999 // NCD 14/12 Q1010
01:50
V
13 °C 10 km+ - 070° 070° 3 kt METAR EDTY 152350Z AUTO 07003KT 9999 // NCD 13/12 Q1010
01:20
V
14 °C 10 km+ - Var Var 2 kt METAR EDTY 152320Z AUTO VRB02KT 9999 // NCD 14/12 Q1010
00:50
V
17 °C 10 km+ - 210° 210° 3 kt METAR EDTY 152250Z AUTO 21003KT 170V240 9999 // NCD 17/13 Q1011
00:20
V
17 °C 10 km+ - 210° 210° 5 kt METAR EDTY 152220Z AUTO 21005KT 9999 // NCD 17/13 Q1011

15 de agosto de 2022

Hora Código Clima Temp. Visibilidade Tecto Vento METAR/SPECI
23:50
V
17 °C 10 km+ - 210° 210° 3 kt METAR EDTY 152150Z AUTO 21003KT 160V240 9999 // NCD 17/13 Q1011
23:20
V
16 °C 10 km+ - Var Var 2 kt METAR EDTY 152120Z AUTO VRB02KT 9999 // NCD 16/14 Q1010
22:50
V
15 °C 10 km+ - Var 000° 0 kt METAR EDTY 152050Z AUTO 00000KT 9999 // NCD 15/13 Q1010
22:20
V
17 °C 10 km+ - Var Var 1 kt METAR EDTY 152020Z AUTO VRB01KT 9999 // NCD 17/14 Q1010
21:50
V
18 °C 10 km+ - Var Var 2 kt METAR EDTY 151950Z AUTO VRB02KT 9999 // NCD 18/14 Q1010
21:20
V
18 °C 10 km+ - 220° 220° 4 kt METAR EDTY 151920Z AUTO 22004KT 190V250 9999 // SCT130/// 18/14 Q1009
20:50
V
18 °C 10 km+ 12.000 ft 220° 220° 4 kt METAR EDTY 151850Z AUTO 22004KT 9999 // BKN120/// 18/14 Q1009
20:20
V
18 °C 10 km+ 10.000 ft 230° 230° 6 kt METAR EDTY 151820Z AUTO 23006KT 9999 // BKN100/// BKN160/// 18/14 Q1009
19:50
V
19 °C 10 km+ - 230° 230° 6 kt METAR EDTY 151750Z 23006KT 9999 -RA FEW049 19/14 Q1008
19:20
V
19 °C 10 km+ - 220° 220° 8 kt METAR EDTY 151720Z 22008KT 9999 -SHRA FEW038 SCT077CB 19/13 Q1008
18:50
V
22 °C 10 km+ 5.900 ft 240° 240° 12 kt METAR EDTY 151650Z 24012KT 9999 -SHRA FEW032 BKN059CB 22/11 Q1008
18:20
V
24 °C 10 km+ 4.200 ft 290° 290° 11 kt METAR EDTY 151620Z 29011KT 9999 FEW032 BKN042CB 24/12 Q1007
17:50
V
25 °C 10 km+ - 290° 290° 9 kt METAR EDTY 151550Z 29009KT 250V320 9999 FEW032 SCT042 25/12 Q1007
17:20
V
26 °C 10 km+ - 310° 310° 8 kt METAR EDTY 151520Z 31008KT 280V360 CAVOK 26/11 Q1007
16:50
V
27 °C 10 km+ - 290° 290° 9 kt METAR EDTY 151450Z 29009KT 240V350 CAVOK 27/12 Q1006
16:20
V
26 °C 10 km+ - 300° 300° 10 kt METAR EDTY 151420Z 30010KT 250V350 CAVOK 26/11 Q1006
15:50
V
27 °C 10 km+ - 280° 280° 9 kt METAR EDTY 151350Z 28009KT 240V320 CAVOK 27/11 Q1007
15:20
V
26 °C 10 km+ - 270° 270° 10 kt METAR EDTY 151320Z 27010KT 230V310 CAVOK 26/11 Q1007
14:50
V
26 °C 10 km+ - 250° 250° 11 kt METAR EDTY 151250Z 25011KT 210V280 CAVOK 26/11 Q1007
Dados mais antigos

Nós e terceiros acompanhamos seu comportamento na internet em nosso site com cookies. Se você continuar, nós assumimos que você concorda com nossa política de cookies. Saiba mais